Argonne, Minnesota
Current Conditions -  °F | °C
As of 9:48 AM on Friday 24 Oct 2014 (Local Time) from KLVN Reporting Station
NA  
Wind Chill: 54°   Ceiling: NA
Heat Index: 54°   Visibility: 10mi
Dew Point: 48°   Wind: 0mph
Humidity: 82%   Direction: NA
Pressure: 29.89"   Gusts: NA
Location:  44.6349°N, 93.283°W
Report Text: KLVN 241448Z AUTO 00000KT 10SM 12/09 A2989 RMK AO2
Loading
Personal Weather Stations






























Interactive Weather Map New forecast layout! Learn more

10-Day Weather Forecast

Advertisements
Track Severe Weather on mobile